Time;durP1;ratioP1;P1;durP2;ratioP2;P2;SDS_P1;SDS_P2;PMS_P1;PMS_P2;Temp;Humidity;BMP_temperature;BMP_pressure;BME280_temperature;BME280_humidity;BME280_pressure;Samples;Min_cycle;Max_cycle;Signal;HPM_P1;HPM_P2
2022/10/28 00:02:23;;;;;;;15.15;6.70;;;;;;;15.22;100.00;101561.72;5066810;28;20211;-74
2022/10/28 00:04:49;;;;;;;13.20;6.60;;;;;;;15.17;100.00;101565.19;5052285;28;20509;-75
2022/10/28 00:07:14;;;;;;;14.98;6.88;;;;;;;15.14;100.00;101571.09;5052356;28;20021;-70
2022/10/28 00:09:39;;;;;;;17.48;7.07;;;;;;;15.10;100.00;101569.06;5051274;28;20427;-72
2022/10/28 00:12:05;;;;;;;16.10;6.88;;;;;;;15.11;100.00;101568.00;5052789;28;20451;-72
2022/10/28 00:14:31;;;;;;;15.45;6.80;;;;;;;15.00;100.00;101556.88;5071858;28;20032;-71
2022/10/28 00:16:56;;;;;;;13.93;6.68;;;;;;;15.00;100.00;101562.31;5071474;28;20395;-73
2022/10/28 00:19:21;;;;;;;16.40;6.75;;;;;;;14.98;100.00;101561.72;5072824;28;20032;-75
2022/10/28 00:21:47;;;;;;;16.27;6.47;;;;;;;14.96;100.00;101560.31;5063051;28;20069;-72
2022/10/28 00:24:13;;;;;;;17.48;8.18;;;;;;;14.89;100.00;101560.44;5052186;28;20442;-71
2022/10/28 00:26:41;;;;;;;13.98;7.00;;;;;;;14.85;100.00;101554.59;5052254;28;20025;-72
2022/10/28 00:29:13;;;;;;;15.48;7.28;;;;;;;14.82;100.00;101557.81;5052308;28;20067;-72
2022/10/28 00:31:39;;;;;;;11.50;6.25;;;;;;;14.78;100.00;101558.50;5052364;28;20032;-70
2022/10/28 00:34:06;;;;;;;15.18;6.40;;;;;;;14.70;100.00;101557.81;5067464;28;20064;-72
2022/10/28 00:36:35;;;;;;;15.35;6.65;;;;;;;14.61;100.00;101551.03;5062787;28;20029;-72
2022/10/28 00:39:02;;;;;;;16.15;6.90;;;;;;;14.61;100.00;101551.03;5052466;28;20368;-73
2022/10/28 00:41:33;;;;;;;12.88;6.50;;;;;;;14.63;100.00;101553.53;5052075;28;20079;-75
2022/10/28 00:44:02;;;;;;;13.63;6.22;;;;;;;14.61;100.00;101550.22;5065748;28;20028;-70
2022/10/28 00:46:46;;;;;;;14.88;6.70;;;;;;;14.64;100.00;101545.13;5071899;28;20031;-73
2022/10/28 00:49:15;;;;;;;15.75;6.82;;;;;;;14.59;100.00;101547.69;5073799;28;20028;-75
2022/10/28 00:51:42;;;;;;;17.23;6.60;;;;;;;14.58;100.00;101543.31;5066970;28;20059;-69
2022/10/28 00:54:08;;;;;;;17.40;6.95;;;;;;;14.51;100.00;101539.88;5073284;28;20019;-72
2022/10/28 00:56:39;;;;;;;12.32;6.78;;;;;;;14.52;100.00;101538.78;5065676;28;20111;-72
2022/10/28 00:59:20;;;;;;;13.43;6.77;;;;;;;14.53;100.00;101532.28;5056306;28;20372;-71
2022/10/28 01:01:46;;;;;;;12.65;6.60;;;;;;;14.51;100.00;101532.53;5054336;28;20055;-73
2022/10/28 01:04:12;;;;;;;18.02;7.22;;;;;;;14.47;100.00;101519.63;5071424;28;20055;-74
2022/10/28 01:06:38;;;;;;;11.30;6.40;;;;;;;14.42;100.00;101519.47;5060903;28;20184;-74
2022/10/28 01:09:03;;;;;;;13.63;6.65;;;;;;;14.47;100.00;101512.28;5073254;28;20032;-73
2022/10/28 01:11:35;;;;;;;13.63;6.57;;;;;;;14.42;100.00;101508.59;5075764;28;20020;-71
2022/10/28 01:14:22;;;;;;;15.43;6.43;;;;;;;14.47;100.00;101506.00;5060925;28;20040;-72
2022/10/28 01:17:08;;;;;;;15.48;5.93;;;;;;;14.42;100.00;101516.75;5055984;28;20132;-72
2022/10/28 01:19:59;;;;;;;16.25;6.65;;;;;;;14.42;100.00;101519.47;5055413;28;20039;-71
2022/10/28 01:22:32;;;;;;;13.63;6.47;;;;;;;14.37;100.00;101509.28;5053622;28;20060;-74
2022/10/28 01:25:39;;;;;;;13.02;6.10;;;;;;;14.35;100.00;101519.59;5056046;28;20145;-73
2022/10/28 01:28:47;;;;;;;15.95;6.13;;;;;;;14.33;100.00;101516.28;5054926;28;20037;-72
2022/10/28 01:31:22;;;;;;;16.90;6.57;;;;;;;14.25;100.00;101505.72;5055885;28;20029;-72
2022/10/28 01:33:48;;;;;;;16.95;6.20;;;;;;;14.18;100.00;101508.56;5090725;28;20459;-73
2022/10/28 01:36:18;;;;;;;13.83;5.93;;;;;;;14.16;100.00;101502.50;5074068;28;20079;-70
2022/10/28 01:38:59;;;;;;;12.35;6.10;;;;;;;14.14;100.00;101500.00;5075025;28;20263;-74
2022/10/28 01:41:46;;;;;;;10.93;6.15;;;;;;;14.10;100.00;101506.16;5073807;28;20055;-75
2022/10/28 01:44:56;;;;;;;12.82;5.93;;;;;;;14.11;100.00;101500.47;5075533;28;20016;-72
2022/10/28 01:47:27;;;;;;;15.48;6.47;;;;;;;13.99;100.00;101494.19;5040719;28;20028;-74
2022/10/28 01:49:58;;;;;;;9.32;5.82;;;;;;;13.94;100.00;101496.78;5016170;28;20491;-71
2022/10/28 01:52:27;;;;;;;12.85;5.90;;;;;;;13.97;100.00;101505.28;5049001;28;20056;-75
2022/10/28 01:54:59;;;;;;;16.60;6.78;;;;;;;13.93;100.00;101501.38;5075209;28;20459;-73
2022/10/28 01:57:26;;;;;;;;;;;;;;;14.07;100.00;101496.59;5075378;28;20032;-73
2022/10/28 01:59:52;;;;;;;10.10;6.07;;;;;;;13.91;100.00;101495.34;5073825;28;19904;-73
2022/10/28 02:02:17;;;;;;;13.60;6.35;;;;;;;13.90;100.00;101498.28;5056736;28;20432;-74
2022/10/28 02:04:43;;;;;;;17.08;6.18;;;;;;;13.89;100.00;101504.78;5067044;28;20024;-70
2022/10/28 02:07:08;;;;;;;11.65;6.15;;;;;;;13.84;100.00;101497.31;5074681;28;20036;-72
2022/10/28 02:09:55;;;;;;;13.48;6.20;;;;;;;13.85;100.00;101492.72;5073455;28;20115;-72
2022/10/28 02:12:36;;;;;;;16.63;6.10;;;;;;;13.81;100.00;101493.19;5056693;28;20127;-72
2022/10/28 02:15:22;;;;;;;16.73;6.55;;;;;;;13.83;100.00;101488.34;5054568;28;20029;-76
2022/10/28 02:17:54;;;;;;;12.27;5.88;;;;;;;13.72;100.00;101500.00;5065331;28;20028;-74
2022/10/28 02:20:42;;;;;;;11.82;6.30;;;;;;;13.75;100.00;101494.13;5075104;28;20036;-70
2022/10/28 02:23:16;;;;;;;13.90;5.90;;;;;;;13.76;100.00;101497.66;5054913;28;20055;-71
2022/10/28 02:25:57;;;;;;;11.43;6.05;;;;;;;13.76;100.00;101500.38;5054419;28;20052;-75
2022/10/28 02:28:41;;;;;;;12.10;5.55;;;;;;;13.79;100.00;101489.03;5054695;28;20025;-74
2022/10/28 02:31:24;;;;;;;16.60;5.63;;;;;;;13.81;100.00;101490.47;5069612;28;20067;-71
2022/10/28 02:33:56;;;;;;;14.65;6.25;;;;;;;13.87;100.00;101491.41;5053944;28;20398;-75
2022/10/28 02:36:23;;;;;;;11.05;5.40;;;;;;;13.91;100.00;101484.47;5054472;28;20024;-74
2022/10/28 02:38:54;;;;;;;15.57;5.07;;;;;;;13.89;100.00;101483.88;5054166;28;20100;-74
2022/10/28 02:41:37;;;;;;;14.98;5.30;;;;;;;13.93;100.00;101474.16;5059604;28;20492;-73
2022/10/28 02:44:09;;;;;;;15.13;4.78;;;;;;;13.99;100.00;101489.59;5089856;28;20426;-71
2022/10/28 02:46:39;;;;;;;15.77;5.70;;;;;;;14.06;100.00;101480.50;5084450;28;20543;-72
2022/10/28 02:49:08;;;;;;;13.45;4.50;;;;;;;14.25;100.00;101484.78;5074187;28;20146;-71
2022/10/28 02:51:37;;;;;;;14.30;5.40;;;;;;;14.20;100.00;101497.44;5071433;28;20539;-75
2022/10/28 02:54:20;;;;;;;12.27;4.75;;;;;;;14.28;100.00;101487.03;5072737;28;20025;-75
2022/10/28 02:56:57;;;;;;;14.02;4.65;;;;;;;14.26;100.00;101489.16;5073888;28;20563;-73
2022/10/28 02:59:24;;;;;;;15.00;5.10;;;;;;;14.28;100.00;101476.16;5072688;28;20101;-74
2022/10/28 03:01:50;;;;;;;15.32;4.90;;;;;;;14.33;100.00;101479.00;5065431;28;20443;-73
2022/10/28 03:04:15;;;;;;;12.98;4.40;;;;;;;14.42;100.00;101471.31;5073566;28;20093;-71
2022/10/28 03:06:40;;;;;;;12.18;5.10;;;;;;;14.47;100.00;101476.88;5073865;28;20031;-70
2022/10/28 03:09:06;;;;;;;17.60;4.43;;;;;;;14.49;100.00;101479.34;5073789;28;20025;-73
2022/10/28 03:11:31;;;;;;;13.60;4.68;;;;;;;14.54;100.00;101482.22;5064856;28;20029;-73
2022/10/28 03:13:56;;;;;;;14.00;4.70;;;;;;;14.50;100.00;101473.66;5052821;28;20025;-74
2022/10/28 03:16:22;;;;;;;18.85;4.90;;;;;;;14.58;100.00;101464.31;5053269;28;20445;-72
2022/10/28 03:18:47;;;;;;;14.18;4.63;;;;;;;14.61;100.00;101469.31;5053193;28;20032;-70
2022/10/28 03:21:13;;;;;;;13.15;4.72;;;;;;;14.61;100.00;101469.31;5057987;28;20051;-74
2022/10/28 03:23:38;;;;;;;14.55;4.95;;;;;;;14.66;100.00;101472.19;5073416;28;20410;-72
2022/10/28 03:26:03;;;;;;;12.10;4.65;;;;;;;14.62;100.00;101470.16;5072166;28;20023;-74
2022/10/28 03:28:29;;;;;;;17.08;4.93;;;;;;;14.69;100.00;101466.25;5073241;28;20402;-74
2022/10/28 03:30:54;;;;;;;11.52;4.90;;;;;;;14.70;100.00;101467.94;5056445;28;20037;-72
2022/10/28 03:33:19;;;;;;;15.85;4.50;;;;;;;14.75;100.00;101480.84;5071999;28;20107;-72
2022/10/28 03:35:44;;;;;;;17.75;4.47;;;;;;;14.71;100.00;101466.84;5073396;28;20039;-74
2022/10/28 03:38:10;;;;;;;16.27;5.03;;;;;;;14.71;100.00;101469.56;5073393;28;20020;-71
2022/10/28 03:40:35;;;;;;;14.63;4.57;;;;;;;14.72;100.00;101464.97;5072020;28;20021;-71
2022/10/28 03:43:00;;;;;;;13.40;4.85;;;;;;;14.76;100.00;101465.31;5053221;28;20025;-73
2022/10/28 03:45:25;;;;;;;14.75;4.50;;;;;;;14.78;100.00;101466.72;5052762;28;20523;-73
2022/10/28 03:47:51;;;;;;;12.55;4.38;;;;;;;14.80;100.00;101464.59;5052829;28;20482;-73
2022/10/28 03:50:16;;;;;;;19.85;4.72;;;;;;;14.82;100.00;101462.44;5053092;28;20029;-70
2022/10/28 03:52:43;;;;;;;13.02;4.50;;;;;;;14.81;100.00;101457.22;5051215;28;20021;-71
2022/10/28 03:55:08;;;;;;;12.32;4.40;;;;;;;14.87;100.00;101468.03;5053086;28;20044;-70
2022/10/28 03:57:33;;;;;;;13.95;4.18;;;;;;;14.83;100.00;101464.09;5052762;28;20017;-75
2022/10/28 03:59:59;;;;;;;13.30;4.53;;;;;;;14.82;100.00;101464.34;5052643;28;20613;-72
2022/10/28 04:02:25;;;;;;;13.98;4.43;;;;;;;14.86;100.00;101465.53;5064066;28;20396;-72
2022/10/28 04:04:50;;;;;;;18.60;5.00;;;;;;;14.92;100.00;101469.22;5071411;28;20409;-73
2022/10/28 04:07:16;;;;;;;13.90;4.95;;;;;;;14.88;100.00;101468.84;5072689;28;20367;-70
2022/10/28 04:09:41;;;;;;;12.10;4.38;;;;;;;14.90;100.00;101464.00;5072774;28;20483;-73
2022/10/28 04:12:09;;;;;;;15.50;5.57;;;;;;;14.90;100.00;101461.28;5074844;28;20105;-70
2022/10/28 04:14:35;;;;;;;13.20;4.70;;;;;;;14.91;100.00;101473.81;5084583;28;20060;-71
2022/10/28 04:17:00;;;;;;;14.77;4.72;;;;;;;14.89;100.00;101474.06;5080998;28;20024;-74
2022/10/28 04:19:25;;;;;;;15.00;4.78;;;;;;;14.92;100.00;101472.75;5072821;28;20027;-71
2022/10/28 04:21:50;;;;;;;20.20;5.20;;;;;;;14.89;100.00;101475.97;5071197;28;20253;-74
2022/10/28 04:24:16;;;;;;;17.30;5.15;;;;;;;14.91;100.00;101473.81;5072232;28;20021;-71
2022/10/28 04:26:41;;;;;;;18.67;4.50;;;;;;;14.93;100.00;101471.69;5069660;28;20026;-74
2022/10/28 04:29:06;;;;;;;14.45;5.05;;;;;;;14.92;100.00;101469.22;5060655;28;20032;-74
2022/10/28 04:31:32;;;;;;;17.05;4.65;;;;;;;14.91;100.00;101476.53;5051789;28;20035;-73
2022/10/28 04:33:57;;;;;;;19.50;5.68;;;;;;;14.89;100.00;101473.22;5052535;28;20052;-72
2022/10/28 04:36:22;;;;;;;13.88;4.85;;;;;;;14.85;100.00;101475.59;5051173;28;20372;-74
2022/10/28 04:38:50;;;;;;;10.65;4.07;;;;;;;14.88;100.00;101474.28;5052141;28;20107;-74
2022/10/28 04:41:16;;;;;;;14.30;4.80;;;;;;;14.88;100.00;101464.22;5051043;28;20035;-75
2022/10/28 04:43:41;;;;;;;14.65;4.90;;;;;;;14.90;100.00;101472.19;5051734;28;20033;-74
2022/10/28 04:46:06;;;;;;;18.52;4.70;;;;;;;14.89;100.00;101470.50;5052280;28;20039;-74
2022/10/28 04:48:32;;;;;;;17.65;4.63;;;;;;;14.86;100.00;101468.25;5052306;28;20029;-72
2022/10/28 04:50:58;;;;;;;13.48;4.47;;;;;;;14.85;100.00;101470.13;5051656;28;20036;-73
2022/10/28 04:53:23;;;;;;;16.15;4.53;;;;;;;14.82;100.00;101470.63;5052074;28;20028;-74
2022/10/28 04:55:48;;;;;;;19.60;5.28;;;;;;;14.81;100.00;101468.97;5050449;28;20036;-74
2022/10/28 04:58:14;;;;;;;20.75;5.05;;;;;;;14.80;100.00;101461.03;5054804;28;20028;-73
2022/10/28 05:00:39;;;;;;;19.60;4.63;;;;;;;14.78;100.00;101455.84;5069999;28;20070;-73
2022/10/28 05:03:05;;;;;;;13.43;4.35;;;;;;;14.73;100.00;101457.59;5052027;28;20365;-73
2022/10/28 05:05:30;;;;;;;14.07;4.88;;;;;;;14.71;100.00;101457.84;5050925;28;20116;-73
2022/10/28 05:07:55;;;;;;;17.33;5.35;;;;;;;14.70;100.00;101458.91;5051861;28;20440;-72
2022/10/28 05:10:21;;;;;;;13.25;5.40;;;;;;;14.71;100.00;101455.13;5051827;28;20497;-73
2022/10/28 05:12:46;;;;;;;16.35;5.20;;;;;;;14.68;100.00;101464.59;5066813;28;20105;-73
2022/10/28 05:15:13;;;;;;;15.88;5.30;;;;;;;14.70;100.00;101467.94;5070849;28;20031;-74
2022/10/28 05:17:40;;;;;;;16.42;5.15;;;;;;;14.70;100.00;101469.78;5060329;28;20036;-70
2022/10/28 05:20:06;;;;;;;10.90;4.35;;;;;;;14.71;100.00;101469.56;5052028;28;20039;-73
2022/10/28 05:22:31;;;;;;;16.60;5.50;;;;;;;14.73;100.00;101471.22;5051488;28;20179;-73
2022/10/28 05:24:57;;;;;;;13.82;5.05;;;;;;;14.71;100.00;101461.38;5051523;28;20564;-71
2022/10/28 05:27:22;;;;;;;17.23;4.97;;;;;;;14.70;100.00;101461.63;5051483;28;20471;-71
2022/10/28 05:29:48;;;;;;;13.77;5.32;;;;;;;14.71;100.00;101460.56;5051763;28;20021;-72
2022/10/28 05:32:13;;;;;;;13.23;5.25;;;;;;;14.69;100.00;101447.19;5061429;28;20023;-73
2022/10/28 05:34:38;;;;;;;19.40;5.75;;;;;;;14.73;100.00;101452.16;5056202;28;20079;-75
2022/10/28 05:37:04;;;;;;;14.57;5.00;;;;;;;14.70;100.00;101451.56;5053192;28;20024;-72
2022/10/28 05:39:29;;;;;;;17.98;5.30;;;;;;;14.72;100.00;101454.06;5055296;28;20029;-72
2022/10/28 05:41:54;;;;;;;16.52;5.25;;;;;;;14.71;100.00;101463.28;5053580;28;20032;-74
2022/10/28 05:44:19;;;;;;;16.13;6.32;;;;;;;14.74;100.00;101462.00;5055229;28;20441;-73
2022/10/28 05:46:45;;;;;;;18.77;6.80;;;;;;;14.69;100.00;101452.63;5053873;28;20033;-75
2022/10/28 05:49:10;;;;;;;18.48;7.07;;;;;;;14.71;100.00;101452.41;5054937;28;20024;-72
2022/10/28 05:51:35;;;;;;;16.75;6.45;;;;;;;14.69;100.00;101452.63;5055434;28;20454;-71
2022/10/28 05:54:00;;;;;;;16.60;6.60;;;;;;;14.69;100.00;101449.09;5055071;28;20032;-74
2022/10/28 05:56:26;;;;;;;17.55;5.65;;;;;;;14.66;100.00;101453.13;5062410;28;20025;-72
2022/10/28 05:58:51;;;;;;;15.95;5.35;;;;;;;14.67;100.00;101457.50;5061014;28;20053;-75
2022/10/28 06:01:16;;;;;;;18.02;5.68;;;;;;;14.65;100.00;101448.72;5051321;28;20025;-73
2022/10/28 06:03:42;;;;;;;17.80;5.28;;;;;;;14.66;100.00;101455.00;5053349;28;20067;-73
2022/10/28 06:06:07;;;;;;;15.23;4.93;;;;;;;14.66;100.00;101455.00;5054061;28;20124;-72
2022/10/28 06:08:32;;;;;;;16.67;5.22;;;;;;;14.66;100.00;101449.53;5054618;28;20411;-72
2022/10/28 06:10:57;;;;;;;15.35;5.07;;;;;;;14.64;100.00;101451.69;5054759;28;20316;-71
2022/10/28 06:13:23;;;;;;;14.95;5.43;;;;;;;14.61;100.00;101458.44;5053752;28;20063;-71
2022/10/28 06:15:53;;;;;;;17.08;5.15;;;;;;;14.61;100.00;101463.88;5057692;28;20444;-75
2022/10/28 06:18:23;;;;;;;16.25;5.03;;;;;;;14.59;100.00;101465.97;5073660;28;20463;-78
2022/10/28 06:21:03;;;;;;;18.33;5.00;;;;;;;14.62;100.00;101460.09;5075045;28;20504;-79
2022/10/28 06:23:29;;;;;;;17.77;5.15;;;;;;;14.60;100.00;101461.34;5065726;28;20029;-78
2022/10/28 06:25:58;;;;;;;15.95;5.22;;;;;;;14.60;100.00;101462.22;5057354;28;20501;-80
2022/10/28 06:28:25;;;;;;;16.98;5.35;;;;;;;14.63;100.00;101467.22;5073457;28;20096;-72
2022/10/28 06:30:50;;;;;;;15.27;5.30;;;;;;;14.64;100.00;101462.56;5073097;28;20032;-73
2022/10/28 06:33:15;;;;;;;24.08;6.40;;;;;;;14.60;100.00;101480.41;5074309;28;20036;-78
2022/10/28 06:35:41;;;;;;;17.80;5.13;;;;;;;14.61;100.00;101458.44;5073037;28;20029;-76
2022/10/28 06:38:06;;;;;;;22.17;5.10;;;;;;;14.60;100.00;101462.22;5074826;28;20052;-75
2022/10/28 06:40:31;;;;;;;17.73;5.38;;;;;;;14.58;100.00;101461.59;5055145;28;20368;-74
2022/10/28 06:43:02;;;;;;;15.52;5.20;;;;;;;14.58;100.00;101458.88;5054109;28;20445;-75
2022/10/28 06:45:29;;;;;;;16.90;5.28;;;;;;;14.60;100.00;101462.22;5053867;28;20017;-78
2022/10/28 06:47:58;;;;;;;16.58;5.68;;;;;;;14.61;100.00;101452.16;5072607;28;20459;-73
2022/10/28 06:50:25;;;;;;;21.40;5.75;;;;;;;14.61;100.00;101463.88;5074485;28;20035;-75
2022/10/28 06:52:50;;;;;;;15.82;5.78;;;;;;;14.58;100.00;101453.41;5074066;28;20024;-74
2022/10/28 06:55:15;;;;;;;16.35;5.60;;;;;;;14.59;100.00;101459.72;5083869;28;20035;-76
2022/10/28 06:57:41;;;;;;;16.38;5.20;;;;;;;14.60;100.00;101453.19;5060358;28;20032;-74
2022/10/28 07:00:07;;;;;;;14.38;5.57;;;;;;;14.63;100.00;101466.34;5053517;28;20449;-73
2022/10/28 07:02:32;;;;;;;21.15;7.25;;;;;;;14.61;100.00;101460.34;5051771;28;20060;-76
2022/10/28 07:04:57;;;;;;;18.50;5.22;;;;;;;14.66;100.00;101465.88;5053503;28;20060;-75
2022/10/28 07:07:23;;;;;;;15.18;5.43;;;;;;;14.63;100.00;101461.75;5066386;28;20025;-71
2022/10/28 07:09:48;;;;;;;16.80;5.53;;;;;;;14.68;100.00;101461.88;5073500;28;20021;-75
2022/10/28 07:12:13;;;;;;;14.05;6.43;;;;;;;14.69;100.00;101466.25;5059671;28;20029;-72
2022/10/28 07:14:38;;;;;;;17.10;5.35;;;;;;;14.68;100.00;101464.59;5066874;28;20412;-70
2022/10/28 07:17:04;;;;;;;20.35;6.45;;;;;;;14.75;100.00;101458.19;5071201;28;20036;-74
2022/10/28 07:19:29;;;;;;;19.98;5.72;;;;;;;14.80;100.00;101466.50;5073672;28;20074;-73
2022/10/28 07:21:54;;;;;;;20.50;5.72;;;;;;;14.81;100.00;101468.13;5073211;28;20383;-72
2022/10/28 07:24:20;;;;;;;12.70;5.30;;;;;;;14.86;100.00;101473.72;5064709;28;20033;-72
2022/10/28 07:26:48;;;;;;;16.58;5.68;;;;;;;14.89;100.00;101481.41;5053090;28;20360;-72
2022/10/28 07:29:13;;;;;;;16.60;5.97;;;;;;;14.95;100.00;101480.44;5071563;28;20083;-72
2022/10/28 07:31:38;;;;;;;18.00;5.80;;;;;;;14.98;100.00;101482.69;5074525;28;20032;-72
2022/10/28 07:34:04;;;;;;;20.58;5.47;;;;;;;15.07;100.00;101483.97;5077896;28;20229;-67
2022/10/28 07:36:29;;;;;;;18.25;5.68;;;;;;;15.13;100.00;101484.09;5078372;28;20035;-74
2022/10/28 07:38:54;;;;;;;21.02;5.68;;;;;;;15.20;100.00;101487.50;5055672;28;20032;-72
2022/10/28 07:41:21;;;;;;;21.10;5.78;;;;;;;15.26;100.00;101485.72;5052471;28;20028;-73
2022/10/28 07:43:46;;;;;;;19.25;6.00;;;;;;;15.26;100.00;101483.81;5052926;28;20025;-71
2022/10/28 07:46:12;;;;;;;22.08;5.50;;;;;;;15.34;100.00;101477.16;5053294;28;20036;-73
2022/10/28 07:48:39;;;;;;;15.82;5.43;;;;;;;15.42;100.00;101474.88;5071753;28;20028;-72
2022/10/28 07:51:06;;;;;;;16.48;5.72;;;;;;;15.47;100.00;101467.88;5072759;28;20340;-73
2022/10/28 07:53:32;;;;;;;15.23;5.53;;;;;;;15.52;100.00;101467.97;5071419;28;20460;-78
2022/10/28 07:56:00;;;;;;;16.80;5.30;;;;;;;15.57;100.00;101465.34;5071586;28;20101;-71
2022/10/28 07:58:25;;;;;;;16.88;5.25;;;;;;;15.65;100.00;101462.22;5051055;28;20059;-71
2022/10/28 08:00:51;;;;;;;21.08;5.85;;;;;;;15.71;100.00;101455.78;5050185;28;20025;-72
2022/10/28 08:03:17;;;;;;;17.95;5.57;;;;;;;15.76;100.00;101472.28;5051625;28;20025;-72
2022/10/28 08:05:42;;;;;;;16.13;5.50;;;;;;;15.81;100.00;101473.47;5064969;28;20020;-72
2022/10/28 08:08:07;;;;;;;19.20;5.35;;;;;;;15.87;100.00;101469.78;5070599;28;20032;-73
2022/10/28 08:10:33;;;;;;;15.77;5.35;;;;;;;15.95;100.00;101472.09;5073120;28;20301;-74
2022/10/28 08:12:59;;;;;;;19.98;6.07;;;;;;;16.01;100.00;101476.56;5072418;28;20032;-74
2022/10/28 08:15:25;;;;;;;16.58;5.43;;;;;;;16.10;100.00;101485.19;5062959;28;20037;-73
2022/10/28 08:17:54;;;;;;;16.10;5.35;;;;;;;16.12;100.00;101489.31;5084590;28;20029;-73
2022/10/28 08:20:20;;;;;;;15.93;5.82;;;;;;;16.19;100.00;101502.81;5052748;28;20463;-75
2022/10/28 08:22:46;;;;;;;15.75;5.47;;;;;;;16.22;100.00;101498.75;5064293;28;20070;-74
2022/10/28 08:25:11;;;;;;;20.75;5.80;;;;;;;16.23;100.00;101500.41;5070684;28;20020;-74
2022/10/28 08:27:36;;;;;;;14.77;5.28;;;;;;;16.23;100.00;101495.78;5064843;28;20053;-74
2022/10/28 08:30:03;;;;;;;18.85;5.32;;;;;;;16.27;100.00;101498.84;5063412;28;20028;-73
2022/10/28 08:32:28;;;;;;;15.30;5.47;;;;;;;16.28;100.00;101493.13;5064760;28;20030;-72
2022/10/28 08:34:53;;;;;;;19.63;5.40;;;;;;;16.30;100.00;101501.91;5063563;28;20100;-72
2022/10/28 08:37:19;;;;;;;16.92;5.57;;;;;;;16.32;100.00;101495.38;5069937;28;20032;-75
2022/10/28 08:39:44;;;;;;;12.43;5.40;;;;;;;16.36;100.00;101505.53;5051129;28;20174;-75
2022/10/28 08:42:46;;;;;;;14.25;5.20;;;;;;;16.39;100.00;101499.59;5053429;28;20062;-75
2022/10/28 08:45:30;;;;;;;;;;;;;;;16.44;100.00;101496.94;5051743;28;20467;-71
2022/10/28 08:48:12;;;;;;;17.73;5.53;;;;;;;16.53;100.00;101482.84;5051718;28;19917;-70
2022/10/28 08:50:47;;;;;;;22.10;5.20;;;;;;;16.60;100.00;101486.25;5052368;28;20021;-70
2022/10/28 08:53:24;;;;;;;17.33;5.28;;;;;;;16.68;100.00;101485.81;5052222;28;20053;-72
2022/10/28 08:55:52;;;;;;;16.48;5.05;;;;;;;16.72;100.00;101484.25;5065854;28;20094;-72
2022/10/28 08:58:22;;;;;;;15.98;5.15;;;;;;;16.81;100.00;101485.47;5072448;28;20145;-72
2022/10/28 09:00:54;;;;;;;16.75;5.95;;;;;;;16.89;100.00;101488.88;5069945;28;20028;-72
2022/10/28 09:03:28;;;;;;;21.05;5.05;;;;;;;16.96;100.00;101489.53;5072276;28;20024;-70
2022/10/28 09:06:01;;;;;;;18.65;4.75;;;;;;;17.07;100.00;101499.53;5070832;28;20028;-71
2022/10/28 09:08:30;;;;;;;17.02;4.90;;;;;;;17.11;100.00;101497.13;5070894;28;20119;-73
2022/10/28 09:11:20;;;;;;;17.63;4.47;;;;;;;17.20;100.00;101492.06;5073010;28;20082;-74
2022/10/28 09:14:06;;;;;;;16.90;5.20;;;;;;;17.23;100.00;101508.78;5076083;28;20063;-75
2022/10/28 09:16:45;;;;;;;16.33;4.90;;;;;;;17.29;100.00;101502.28;5055960;28;20053;-74
2022/10/28 09:19:25;;;;;;;17.52;5.38;;;;;;;17.35;100.00;101503.19;5055731;28;20037;-75
2022/10/28 09:22:06;;;;;;;12.55;4.88;;;;;;;17.44;100.00;101507.13;5073291;28;20044;-74
2022/10/28 09:24:50;;;;;;;;;;;;;;;17.48;100.00;101504.69;5073860;28;20032;-74
2022/10/28 09:27:29;;;;;;;20.33;5.35;;;;;;;17.60;100.00;101505.38;5066391;28;20369;-74
2022/10/28 09:29:54;;;;;;;18.63;5.15;;;;;;;17.67;100.00;101496.97;5075267;28;20020;-74
2022/10/28 09:32:28;;;;;;;17.63;5.03;;;;;;;17.66;100.00;101503.53;5075055;28;20035;-75
2022/10/28 09:34:59;;;;;;;19.42;5.15;;;;;;;17.75;100.00;101509.38;5073979;28;20279;-74
2022/10/28 09:37:30;;;;;;;15.93;4.68;;;;;;;17.76;100.00;101506.38;5063727;28;20037;-77
2022/10/28 09:40:09;;;;;;;14.83;4.77;;;;;;;17.77;100.00;101516.25;5071810;28;20375;-75
2022/10/28 09:42:39;;;;;;;15.18;4.88;;;;;;;17.83;100.00;101514.38;5069777;28;20487;-73
2022/10/28 09:45:15;;;;;;;19.30;5.10;;;;;;;17.86;100.00;101516.59;5074064;28;20031;-73
2022/10/28 09:47:46;;;;;;;17.42;4.72;;;;;;;17.89;100.00;101511.50;5073936;28;20527;-72
2022/10/28 09:50:19;;;;;;;27.48;5.45;;;;;;;17.97;100.00;101517.59;5073816;28;20070;-72
2022/10/28 09:53:09;;;;;;;16.13;4.95;;;;;;;18.04;100.00;101518.19;5087580;28;20372;-72
2022/10/28 09:55:34;;;;;;;19.30;5.10;;;;;;;18.11;100.00;101513.34;5074859;28;20020;-75
2022/10/28 09:58:03;;;;;;;18.27;4.82;;;;;;;18.12;100.00;101516.91;5056956;28;20135;-75
2022/10/28 10:00:28;;;;;;;15.55;4.75;;;;;;;18.18;100.00;101515.88;5063310;28;20020;-75
2022/10/28 10:03:01;;;;;;;22.15;4.60;;;;;;;18.24;100.00;101514.84;5074960;28;20043;-75
2022/10/28 10:05:31;;;;;;;11.98;4.50;;;;;;;18.33;100.00;101515.19;5056513;28;20727;-74
2022/10/28 10:08:00;;;;;;;19.23;4.97;;;;;;;18.45;100.00;101521.31;5053183;28;20046;-72
2022/10/28 10:10:30;;;;;;;16.50;4.72;;;;;;;18.49;100.00;101519.69;5055368;28;20037;-74
2022/10/28 10:13:00;;;;;;;14.23;4.10;;;;;;;18.53;100.00;101515.34;5053152;28;20375;-73
2022/10/28 10:15:35;;;;;;;18.52;4.47;;;;;;;18.59;100.00;101513.47;5073644;28;20031;-74
2022/10/28 10:18:04;;;;;;;15.77;4.90;;;;;;;18.69;100.00;101523.66;5074551;28;20024;-73
2022/10/28 10:20:48;;;;;;;23.67;5.00;;;;;;;18.69;100.00;101524.50;5059580;28;20052;-73
2022/10/28 10:23:31;;;;;;;22.83;5.50;;;;;;;18.75;100.00;101522.59;5054213;28;20476;-72
2022/10/28 10:26:07;;;;;;;22.00;4.70;;;;;;;18.80;100.00;101519.09;5061826;28;20025;-73
2022/10/28 10:28:35;;;;;;;21.63;4.78;;;;;;;18.84;100.00;101521.06;5073152;28;20035;-72
2022/10/28 10:31:03;;;;;;;24.98;4.45;;;;;;;18.87;100.00;101512.34;5072700;28;20027;-72
2022/10/28 10:33:38;;;;;;;23.55;4.57;;;;;;;18.89;100.00;101512.06;5074396;28;20028;-72
2022/10/28 10:36:09;;;;;;;14.20;4.43;;;;;;;19.00;99.11;101513.75;5073123;28;20032;-73
2022/10/28 10:38:35;;;;;;;;;;;;;;;19.02;100.00;101510.75;5059549;28;20032;-74
2022/10/28 10:41:00;;;;;;;18.83;4.60;;;;;;;19.13;97.31;101498.75;5053934;28;19905;-74
2022/10/28 10:43:26;;;;;;;13.10;4.43;;;;;;;19.17;97.09;101494.38;5054235;28;20040;-73
2022/10/28 10:45:57;;;;;;;14.18;4.05;;;;;;;19.33;89.70;101494.47;5060779;28;20463;-75
2022/10/28 10:48:23;;;;;;;18.52;4.40;;;;;;;19.38;87.95;101487.03;5062179;28;20090;-74
2022/10/28 10:50:49;;;;;;;15.00;4.32;;;;;;;19.43;88.89;101487.09;5054327;28;20468;-74
2022/10/28 10:53:22;;;;;;;20.00;4.45;;;;;;;19.54;82.26;101490.69;5086407;28;20016;-73
2022/10/28 10:55:51;;;;;;;15.52;4.13;;;;;;;19.57;84.42;101484.66;5092094;28;20042;-74
2022/10/28 10:58:20;;;;;;;25.75;4.80;;;;;;;19.65;83.52;101488.78;5063082;28;20028;-73
2022/10/28 11:00:48;;;;;;;17.67;4.40;;;;;;;19.75;81.05;101501.72;5071536;28;20020;-72
2022/10/28 11:03:20;;;;;;;23.45;4.63;;;;;;;19.80;81.85;101505.31;5069981;28;20024;-72
2022/10/28 11:05:57;;;;;;;13.57;4.25;;;;;;;19.88;80.12;101511.38;5053966;28;20029;-73
2022/10/28 11:08:42;;;;;;;17.38;4.60;;;;;;;19.95;83.66;101510.03;5063467;28;20421;-74
2022/10/28 11:11:17;;;;;;;17.15;4.30;;;;;;;20.04;76.44;101502.06;5052690;28;20466;-74
2022/10/28 11:13:45;;;;;;;15.30;3.97;;;;;;;20.07;78.40;101507.03;5059565;28;20043;-75
2022/10/28 11:16:21;;;;;;;18.27;3.95;;;;;;;20.09;77.97;101496.56;5063922;28;20027;-73
2022/10/28 11:18:50;;;;;;;17.88;4.57;;;;;;;20.12;77.28;101495.22;5074770;28;20527;-74
2022/10/28 11:21:47;;;;;;;20.10;4.35;;;;;;;20.09;78.57;101482.84;5068865;28;20044;-74
2022/10/28 11:24:30;;;;;;;22.20;4.35;;;;;;;20.09;76.14;101482.84;5053266;28;20086;-75